sensor_id;sensor_type;location;lat;lon;timestamp;P1;durP1;ratioP1;P2;durP2;ratioP2
6259;SDS011;3163;51.516;4.000;2023-11-21T00:00:35;4.07;;;2.20;;
6259;SDS011;3163;51.516;4.000;2023-11-21T00:03:01;2.03;;;1.90;;
6259;SDS011;3163;51.516;4.000;2023-11-21T00:05:27;2.60;;;2.00;;
6259;SDS011;3163;51.516;4.000;2023-11-21T00:07:53;2.17;;;1.77;;
6259;SDS011;3163;51.516;4.000;2023-11-21T00:10:19;3.00;;;2.30;;
6259;SDS011;3163;51.516;4.000;2023-11-21T00:12:45;3.30;;;2.20;;
6259;SDS011;3163;51.516;4.000;2023-11-21T00:15:13;3.73;;;2.20;;
6259;SDS011;3163;51.516;4.000;2023-11-21T00:17:39;2.20;;;2.10;;
6259;SDS011;3163;51.516;4.000;2023-11-21T00:20:08;3.97;;;1.90;;
6259;SDS011;3163;51.516;4.000;2023-11-21T00:22:37;2.40;;;1.73;;
6259;SDS011;3163;51.516;4.000;2023-11-21T00:25:03;2.10;;;1.90;;
6259;SDS011;3163;51.516;4.000;2023-11-21T00:27:29;2.90;;;2.00;;
6259;SDS011;3163;51.516;4.000;2023-11-21T00:29:55;2.80;;;2.03;;
6259;SDS011;3163;51.516;4.000;2023-11-21T00:32:21;2.13;;;2.03;;
6259;SDS011;3163;51.516;4.000;2023-11-21T00:34:47;2.47;;;2.20;;
6259;SDS011;3163;51.516;4.000;2023-11-21T00:37:14;5.47;;;2.73;;
6259;SDS011;3163;51.516;4.000;2023-11-21T00:39:40;3.50;;;2.30;;
6259;SDS011;3163;51.516;4.000;2023-11-21T00:42:06;3.40;;;2.00;;
6259;SDS011;3163;51.516;4.000;2023-11-21T00:44:33;2.03;;;1.83;;
6259;SDS011;3163;51.516;4.000;2023-11-21T00:46:59;1.50;;;1.40;;
6259;SDS011;3163;51.516;4.000;2023-11-21T00:49:25;2.13;;;1.60;;
6259;SDS011;3163;51.516;4.000;2023-11-21T00:51:53;2.20;;;2.00;;
6259;SDS011;3163;51.516;4.000;2023-11-21T00:54:19;2.57;;;1.60;;
6259;SDS011;3163;51.516;4.000;2023-11-21T00:56:45;2.50;;;1.80;;
6259;SDS011;3163;51.516;4.000;2023-11-21T00:59:13;1.40;;;1.30;;
6259;SDS011;3163;51.516;4.000;2023-11-21T01:01:39;1.43;;;1.33;;
6259;SDS011;3163;51.516;4.000;2023-11-21T01:04:05;3.83;;;2.13;;
6259;SDS011;3163;51.516;4.000;2023-11-21T01:06:34;4.23;;;2.27;;
6259;SDS011;3163;51.516;4.000;2023-11-21T01:09:00;2.50;;;1.97;;
6259;SDS011;3163;51.516;4.000;2023-11-21T01:11:26;4.10;;;2.23;;
6259;SDS011;3163;51.516;4.000;2023-11-21T01:13:52;1.70;;;1.60;;
6259;SDS011;3163;51.516;4.000;2023-11-21T01:16:18;3.63;;;2.07;;
6259;SDS011;3163;51.516;4.000;2023-11-21T01:18:45;4.00;;;2.40;;
6259;SDS011;3163;51.516;4.000;2023-11-21T01:21:11;1.67;;;1.57;;
6259;SDS011;3163;51.516;4.000;2023-11-21T01:23:37;3.17;;;1.60;;
6259;SDS011;3163;51.516;4.000;2023-11-21T01:26:03;2.07;;;1.80;;
6259;SDS011;3163;51.516;4.000;2023-11-21T01:28:29;2.17;;;1.80;;
6259;SDS011;3163;51.516;4.000;2023-11-21T01:30:55;1.90;;;1.80;;
6259;SDS011;3163;51.516;4.000;2023-11-21T01:33:21;1.67;;;1.50;;
6259;SDS011;3163;51.516;4.000;2023-11-21T01:35:49;2.27;;;1.90;;
6259;SDS011;3163;51.516;4.000;2023-11-21T01:38:15;2.13;;;1.80;;
6259;SDS011;3163;51.516;4.000;2023-11-21T01:40:42;1.77;;;1.67;;
6259;SDS011;3163;51.516;4.000;2023-11-21T01:43:08;1.67;;;1.57;;
6259;SDS011;3163;51.516;4.000;2023-11-21T01:45:34;4.33;;;2.33;;
6259;SDS011;3163;51.516;4.000;2023-11-21T01:48:00;5.10;;;1.83;;
6259;SDS011;3163;51.516;4.000;2023-11-21T01:50:28;3.80;;;1.80;;
6259;SDS011;3163;51.516;4.000;2023-11-21T01:52:54;1.77;;;1.43;;
6259;SDS011;3163;51.516;4.000;2023-11-21T01:55:20;3.80;;;1.60;;
6259;SDS011;3163;51.516;4.000;2023-11-21T01:57:46;2.80;;;1.63;;
6259;SDS011;3163;51.516;4.000;2023-11-21T02:00:13;1.70;;;1.60;;
6259;SDS011;3163;51.516;4.000;2023-11-21T02:02:42;1.43;;;1.33;;
6259;SDS011;3163;51.516;4.000;2023-11-21T02:05:09;1.83;;;1.63;;
6259;SDS011;3163;51.516;4.000;2023-11-21T02:07:37;1.70;;;1.43;;
6259;SDS011;3163;51.516;4.000;2023-11-21T02:10:03;2.37;;;1.70;;
6259;SDS011;3163;51.516;4.000;2023-11-21T02:12:29;2.07;;;1.70;;
6259;SDS011;3163;51.516;4.000;2023-11-21T02:14:55;1.60;;;1.50;;
6259;SDS011;3163;51.516;4.000;2023-11-21T02:17:21;2.13;;;1.40;;
6259;SDS011;3163;51.516;4.000;2023-11-21T02:19:47;1.60;;;1.50;;
6259;SDS011;3163;51.516;4.000;2023-11-21T02:22:16;1.60;;;1.50;;
6259;SDS011;3163;51.516;4.000;2023-11-21T02:24:42;2.33;;;1.93;;
6259;SDS011;3163;51.516;4.000;2023-11-21T02:27:08;1.77;;;1.47;;
6259;SDS011;3163;51.516;4.000;2023-11-21T02:29:35;3.50;;;2.20;;
6259;SDS011;3163;51.516;4.000;2023-11-21T02:32:01;1.23;;;1.20;;
6259;SDS011;3163;51.516;4.000;2023-11-21T02:34:27;1.80;;;1.70;;
6259;SDS011;3163;51.516;4.000;2023-11-21T02:36:53;1.30;;;1.20;;
6259;SDS011;3163;51.516;4.000;2023-11-21T02:39:19;4.57;;;1.60;;
6259;SDS011;3163;51.516;4.000;2023-11-21T02:41:49;2.37;;;1.50;;
6259;SDS011;3163;51.516;4.000;2023-11-21T02:44:15;1.57;;;1.37;;
6259;SDS011;3163;51.516;4.000;2023-11-21T02:46:41;2.00;;;1.80;;
6259;SDS011;3163;51.516;4.000;2023-11-21T02:49:08;1.57;;;1.47;;
6259;SDS011;3163;51.516;4.000;2023-11-21T02:51:35;1.60;;;1.50;;
6259;SDS011;3163;51.516;4.000;2023-11-21T02:54:03;1.30;;;1.20;;
6259;SDS011;3163;51.516;4.000;2023-11-21T02:56:31;4.00;;;1.50;;
6259;SDS011;3163;51.516;4.000;2023-11-21T02:58:59;1.40;;;1.30;;
6259;SDS011;3163;51.516;4.000;2023-11-21T03:01:25;6.00;;;1.70;;
6259;SDS011;3163;51.516;4.000;2023-11-21T03:03:51;1.57;;;1.37;;
6259;SDS011;3163;51.516;4.000;2023-11-21T03:06:18;1.30;;;1.20;;
6259;SDS011;3163;51.516;4.000;2023-11-21T03:08:44;1.83;;;1.43;;
6259;SDS011;3163;51.516;4.000;2023-11-21T03:11:10;3.70;;;1.60;;
6259;SDS011;3163;51.516;4.000;2023-11-21T03:13:42;2.73;;;1.70;;
6259;SDS011;3163;51.516;4.000;2023-11-21T03:16:08;2.37;;;1.67;;
6259;SDS011;3163;51.516;4.000;2023-11-21T03:18:35;1.47;;;1.37;;
6259;SDS011;3163;51.516;4.000;2023-11-21T03:21:01;1.40;;;1.30;;
6259;SDS011;3163;51.516;4.000;2023-11-21T03:23:27;1.60;;;1.47;;
6259;SDS011;3163;51.516;4.000;2023-11-21T03:25:53;2.43;;;1.50;;
6259;SDS011;3163;51.516;4.000;2023-11-21T03:28:19;4.37;;;1.57;;
6259;SDS011;3163;51.516;4.000;2023-11-21T03:30:45;2.17;;;1.90;;
6259;SDS011;3163;51.516;4.000;2023-11-21T03:33:11;1.30;;;1.20;;
6259;SDS011;3163;51.516;4.000;2023-11-21T03:35:37;2.17;;;1.87;;
6259;SDS011;3163;51.516;4.000;2023-11-21T03:38:04;1.40;;;1.30;;
6259;SDS011;3163;51.516;4.000;2023-11-21T03:40:30;1.90;;;1.27;;
6259;SDS011;3163;51.516;4.000;2023-11-21T03:42:56;1.73;;;1.33;;
6259;SDS011;3163;51.516;4.000;2023-11-21T03:45:22;1.53;;;1.40;;
6259;SDS011;3163;51.516;4.000;2023-11-21T03:47:49;2.67;;;1.90;;
6259;SDS011;3163;51.516;4.000;2023-11-21T03:50:15;1.10;;;1.10;;
6259;SDS011;3163;51.516;4.000;2023-11-21T03:52:41;2.53;;;1.90;;
6259;SDS011;3163;51.516;4.000;2023-11-21T03:55:07;1.07;;;1.03;;
6259;SDS011;3163;51.516;4.000;2023-11-21T03:57:34;4.00;;;1.70;;
6259;SDS011;3163;51.516;4.000;2023-11-21T04:00:00;2.10;;;1.53;;
6259;SDS011;3163;51.516;4.000;2023-11-21T04:02:29;2.83;;;1.27;;
6259;SDS011;3163;51.516;4.000;2023-11-21T04:04:56;2.20;;;1.63;;
6259;SDS011;3163;51.516;4.000;2023-11-21T04:07:22;2.30;;;1.60;;
6259;SDS011;3163;51.516;4.000;2023-11-21T04:09:48;1.87;;;1.70;;
6259;SDS011;3163;51.516;4.000;2023-11-21T04:12:14;1.67;;;1.57;;
6259;SDS011;3163;51.516;4.000;2023-11-21T04:14:40;2.87;;;1.63;;
6259;SDS011;3163;51.516;4.000;2023-11-21T04:17:06;1.57;;;1.47;;
6259;SDS011;3163;51.516;4.000;2023-11-21T04:19:32;2.33;;;1.80;;
6259;SDS011;3163;51.516;4.000;2023-11-21T04:21:58;2.73;;;1.97;;
6259;SDS011;3163;51.516;4.000;2023-11-21T04:24:24;2.90;;;1.67;;
6259;SDS011;3163;51.516;4.000;2023-11-21T04:26:50;1.97;;;1.80;;
6259;SDS011;3163;51.516;4.000;2023-11-21T04:29:16;2.63;;;1.43;;
6259;SDS011;3163;51.516;4.000;2023-11-21T04:31:42;1.30;;;1.20;;
6259;SDS011;3163;51.516;4.000;2023-11-21T04:34:08;4.07;;;1.80;;
6259;SDS011;3163;51.516;4.000;2023-11-21T04:36:34;1.73;;;1.63;;
6259;SDS011;3163;51.516;4.000;2023-11-21T04:39:00;1.30;;;1.27;;
6259;SDS011;3163;51.516;4.000;2023-11-21T04:41:26;1.13;;;1.07;;
6259;SDS011;3163;51.516;4.000;2023-11-21T04:43:52;1.90;;;1.67;;
6259;SDS011;3163;51.516;4.000;2023-11-21T04:46:18;1.40;;;1.30;;
6259;SDS011;3163;51.516;4.000;2023-11-21T04:48:44;3.40;;;2.07;;
6259;SDS011;3163;51.516;4.000;2023-11-21T04:51:10;1.37;;;1.27;;
6259;SDS011;3163;51.516;4.000;2023-11-21T04:53:37;3.13;;;1.87;;
6259;SDS011;3163;51.516;4.000;2023-11-21T04:56:04;1.30;;;1.20;;
6259;SDS011;3163;51.516;4.000;2023-11-21T04:58:30;1.20;;;1.20;;
6259;SDS011;3163;51.516;4.000;2023-11-21T05:00:57;3.27;;;1.63;;
6259;SDS011;3163;51.516;4.000;2023-11-21T05:03:24;3.43;;;1.67;;
6259;SDS011;3163;51.516;4.000;2023-11-21T05:05:49;1.20;;;1.10;;
6259;SDS011;3163;51.516;4.000;2023-11-21T05:08:15;4.10;;;1.90;;
6259;SDS011;3163;51.516;4.000;2023-11-21T05:10:42;2.23;;;2.03;;
6259;SDS011;3163;51.516;4.000;2023-11-21T05:13:08;1.60;;;1.50;;
6259;SDS011;3163;51.516;4.000;2023-11-21T05:15:35;1.60;;;1.50;;
6259;SDS011;3163;51.516;4.000;2023-11-21T05:18:01;2.40;;;1.90;;
6259;SDS011;3163;51.516;4.000;2023-11-21T05:20:28;3.83;;;1.80;;
6259;SDS011;3163;51.516;4.000;2023-11-21T05:22:54;1.40;;;1.30;;
6259;SDS011;3163;51.516;4.000;2023-11-21T05:25:20;3.08;;;2.20;;
6259;SDS011;3163;51.516;4.000;2023-11-21T05:27:46;2.13;;;1.87;;
6259;SDS011;3163;51.516;4.000;2023-11-21T05:30:12;1.03;;;1.00;;
6259;SDS011;3163;51.516;4.000;2023-11-21T05:32:39;4.30;;;2.07;;
6259;SDS011;3163;51.516;4.000;2023-11-21T05:35:07;2.13;;;1.70;;
6259;SDS011;3163;51.516;4.000;2023-11-21T05:37:37;1.60;;;1.40;;
6259;SDS011;3163;51.516;4.000;2023-11-21T05:40:07;1.50;;;1.40;;
6259;SDS011;3163;51.516;4.000;2023-11-21T05:42:33;7.57;;;1.77;;
6259;SDS011;3163;51.516;4.000;2023-11-21T05:44:59;1.80;;;1.70;;
6259;SDS011;3163;51.516;4.000;2023-11-21T05:47:35;1.43;;;1.33;;
6259;SDS011;3163;51.516;4.000;2023-11-21T05:50:01;2.00;;;1.70;;
6259;SDS011;3163;51.516;4.000;2023-11-21T05:52:27;1.57;;;1.43;;
6259;SDS011;3163;51.516;4.000;2023-11-21T05:54:53;1.87;;;1.43;;
6259;SDS011;3163;51.516;4.000;2023-11-21T05:57:19;1.50;;;1.40;;
6259;SDS011;3163;51.516;4.000;2023-11-21T05:59:45;1.47;;;1.37;;
6259;SDS011;3163;51.516;4.000;2023-11-21T06:02:11;1.73;;;1.40;;
6259;SDS011;3163;51.516;4.000;2023-11-21T06:04:37;2.07;;;1.17;;
6259;SDS011;3163;51.516;4.000;2023-11-21T06:07:03;1.33;;;1.23;;
6259;SDS011;3163;51.516;4.000;2023-11-21T06:09:29;1.50;;;1.40;;
6259;SDS011;3163;51.516;4.000;2023-11-21T06:11:55;1.50;;;1.10;;
6259;SDS011;3163;51.516;4.000;2023-11-21T06:14:21;1.47;;;1.37;;
6259;SDS011;3163;51.516;4.000;2023-11-21T06:16:47;1.30;;;1.20;;
6259;SDS011;3163;51.516;4.000;2023-11-21T06:19:15;1.50;;;1.40;;
6259;SDS011;3163;51.516;4.000;2023-11-21T06:21:44;0.80;;;0.80;;
6259;SDS011;3163;51.516;4.000;2023-11-21T06:24:10;1.43;;;1.23;;
6259;SDS011;3163;51.516;4.000;2023-11-21T06:26:36;1.80;;;1.20;;
6259;SDS011;3163;51.516;4.000;2023-11-21T06:29:02;1.27;;;1.10;;
6259;SDS011;3163;51.516;4.000;2023-11-21T06:31:29;0.90;;;0.90;;
6259;SDS011;3163;51.516;4.000;2023-11-21T06:33:55;0.83;;;0.83;;
6259;SDS011;3163;51.516;4.000;2023-11-21T06:36:21;1.07;;;1.07;;
6259;SDS011;3163;51.516;4.000;2023-11-21T06:38:47;1.60;;;0.80;;
6259;SDS011;3163;51.516;4.000;2023-11-21T06:41:13;1.80;;;0.87;;
6259;SDS011;3163;51.516;4.000;2023-11-21T06:43:40;0.70;;;0.70;;
6259;SDS011;3163;51.516;4.000;2023-11-21T06:46:06;1.03;;;0.70;;
6259;SDS011;3163;51.516;4.000;2023-11-21T06:48:32;0.50;;;0.50;;
6259;SDS011;3163;51.516;4.000;2023-11-21T06:50:58;0.60;;;0.60;;
6259;SDS011;3163;51.516;4.000;2023-11-21T06:53:24;0.97;;;0.97;;
6259;SDS011;3163;51.516;4.000;2023-11-21T06:55:50;0.53;;;0.30;;
6259;SDS011;3163;51.516;4.000;2023-11-21T06:58:16;0.63;;;0.47;;
6259;SDS011;3163;51.516;4.000;2023-11-21T07:00:42;0.77;;;0.47;;
6259;SDS011;3163;51.516;4.000;2023-11-21T07:03:11;0.47;;;0.37;;
6259;SDS011;3163;51.516;4.000;2023-11-21T07:05:37;0.23;;;0.23;;
6259;SDS011;3163;51.516;4.000;2023-11-21T07:08:03;0.50;;;0.50;;
6259;SDS011;3163;51.516;4.000;2023-11-21T07:10:29;0.27;;;0.27;;
6259;SDS011;3163;51.516;4.000;2023-11-21T07:12:56;0.53;;;0.50;;
6259;SDS011;3163;51.516;4.000;2023-11-21T07:15:22;0.20;;;0.20;;
6259;SDS011;3163;51.516;4.000;2023-11-21T07:17:49;0.47;;;0.47;;
6259;SDS011;3163;51.516;4.000;2023-11-21T07:20:15;1.03;;;0.50;;
6259;SDS011;3163;51.516;4.000;2023-11-21T07:22:42;0.30;;;0.30;;
6259;SDS011;3163;51.516;4.000;2023-11-21T07:25:08;0.40;;;0.40;;
6259;SDS011;3163;51.516;4.000;2023-11-21T07:27:35;0.80;;;0.40;;
6259;SDS011;3163;51.516;4.000;2023-11-21T07:30:02;1.30;;;0.33;;
6259;SDS011;3163;51.516;4.000;2023-11-21T07:32:30;0.20;;;0.20;;
6259;SDS011;3163;51.516;4.000;2023-11-21T07:34:56;0.20;;;0.20;;
6259;SDS011;3163;51.516;4.000;2023-11-21T07:37:24;1.17;;;0.50;;
6259;SDS011;3163;51.516;4.000;2023-11-21T07:39:53;0.23;;;0.23;;
6259;SDS011;3163;51.516;4.000;2023-11-21T07:42:21;0.10;;;0.10;;
6259;SDS011;3163;51.516;4.000;2023-11-21T07:44:47;0.30;;;0.30;;
6259;SDS011;3163;51.516;4.000;2023-11-21T07:47:15;0.73;;;0.43;;
6259;SDS011;3163;51.516;4.000;2023-11-21T07:49:41;1.50;;;0.70;;
6259;SDS011;3163;51.516;4.000;2023-11-21T07:52:08;2.00;;;0.70;;
6259;SDS011;3163;51.516;4.000;2023-11-21T07:54:35;0.30;;;0.30;;
6259;SDS011;3163;51.516;4.000;2023-11-21T07:57:01;0.40;;;0.40;;
6259;SDS011;3163;51.516;4.000;2023-11-21T07:59:29;0.23;;;0.23;;
6259;SDS011;3163;51.516;4.000;2023-11-21T08:01:55;0.70;;;0.70;;
6259;SDS011;3163;51.516;4.000;2023-11-21T08:04:21;1.33;;;0.50;;
6259;SDS011;3163;51.516;4.000;2023-11-21T08:06:48;0.37;;;0.37;;
6259;SDS011;3163;51.516;4.000;2023-11-21T08:09:14;0.67;;;0.30;;
6259;SDS011;3163;51.516;4.000;2023-11-21T08:11:42;1.17;;;0.30;;
6259;SDS011;3163;51.516;4.000;2023-11-21T08:14:08;0.30;;;0.30;;
6259;SDS011;3163;51.516;4.000;2023-11-21T08:16:34;0.30;;;0.30;;
6259;SDS011;3163;51.516;4.000;2023-11-21T08:19:00;0.87;;;0.60;;
6259;SDS011;3163;51.516;4.000;2023-11-21T08:21:27;2.53;;;0.40;;
6259;SDS011;3163;51.516;4.000;2023-11-21T08:23:54;0.30;;;0.30;;
6259;SDS011;3163;51.516;4.000;2023-11-21T08:26:22;0.30;;;0.30;;
6259;SDS011;3163;51.516;4.000;2023-11-21T08:28:49;2.10;;;0.33;;
6259;SDS011;3163;51.516;4.000;2023-11-21T08:31:23;0.60;;;0.20;;
6259;SDS011;3163;51.516;4.000;2023-11-21T08:33:49;1.60;;;0.20;;
6259;SDS011;3163;51.516;4.000;2023-11-21T08:36:15;2.73;;;0.43;;
6259;SDS011;3163;51.516;4.000;2023-11-21T08:38:41;1.23;;;0.37;;
6259;SDS011;3163;51.516;4.000;2023-11-21T08:41:07;0.30;;;0.30;;
6259;SDS011;3163;51.516;4.000;2023-11-21T08:43:34;0.40;;;0.30;;
6259;SDS011;3163;51.516;4.000;2023-11-21T08:46:00;1.50;;;0.43;;
6259;SDS011;3163;51.516;4.000;2023-11-21T08:48:26;0.67;;;0.30;;
6259;SDS011;3163;51.516;4.000;2023-11-21T08:50:54;2.30;;;0.40;;
6259;SDS011;3163;51.516;4.000;2023-11-21T08:53:21;0.50;;;0.50;;
6259;SDS011;3163;51.516;4.000;2023-11-21T08:55:47;0.83;;;0.30;;
6259;SDS011;3163;51.516;4.000;2023-11-21T08:58:15;0.43;;;0.40;;
6259;SDS011;3163;51.516;4.000;2023-11-21T09:00:41;1.03;;;0.40;;
6259;SDS011;3163;51.516;4.000;2023-11-21T09:03:07;0.50;;;0.50;;
6259;SDS011;3163;51.516;4.000;2023-11-21T09:05:34;0.47;;;0.40;;
6259;SDS011;3163;51.516;4.000;2023-11-21T09:08:00;0.27;;;0.27;;
6259;SDS011;3163;51.516;4.000;2023-11-21T09:10:26;0.30;;;0.30;;
6259;SDS011;3163;51.516;4.000;2023-11-21T09:12:53;0.30;;;0.30;;
6259;SDS011;3163;51.516;4.000;2023-11-21T09:15:19;0.20;;;0.20;;
6259;SDS011;3163;51.516;4.000;2023-11-21T09:17:45;0.40;;;0.40;;
6259;SDS011;3163;51.516;4.000;2023-11-21T09:20:11;0.37;;;0.37;;
6259;SDS011;3163;51.516;4.000;2023-11-21T09:22:39;0.65;;;0.55;;
6259;SDS011;3163;51.516;4.000;2023-11-21T09:25:06;0.53;;;0.47;;
6259;SDS011;3163;51.516;4.000;2023-11-21T09:27:33;1.53;;;0.70;;
6259;SDS011;3163;51.516;4.000;2023-11-21T09:30:00;0.43;;;0.43;;
6259;SDS011;3163;51.516;4.000;2023-11-21T09:32:26;1.97;;;0.60;;
6259;SDS011;3163;51.516;4.000;2023-11-21T09:34:52;1.23;;;0.63;;
6259;SDS011;3163;51.516;4.000;2023-11-21T09:37:22;0.40;;;0.40;;
6259;SDS011;3163;51.516;4.000;2023-11-21T09:39:49;1.70;;;0.43;;
6259;SDS011;3163;51.516;4.000;2023-11-21T09:42:17;0.50;;;0.50;;
6259;SDS011;3163;51.516;4.000;2023-11-21T09:47:14;1.83;;;1.03;;
6259;SDS011;3163;51.516;4.000;2023-11-21T09:49:41;0.97;;;0.60;;
6259;SDS011;3163;51.516;4.000;2023-11-21T09:52:08;3.93;;;0.83;;
6259;SDS011;3163;51.516;4.000;2023-11-21T09:54:35;1.70;;;0.50;;
6259;SDS011;3163;51.516;4.000;2023-11-21T09:57:01;1.37;;;0.60;;
6259;SDS011;3163;51.516;4.000;2023-11-21T09:59:30;3.83;;;0.50;;
6259;SDS011;3163;51.516;4.000;2023-11-21T10:01:57;1.33;;;0.40;;
6259;SDS011;3163;51.516;4.000;2023-11-21T10:04:23;0.60;;;0.60;;
6259;SDS011;3163;51.516;4.000;2023-11-21T10:06:50;1.07;;;0.40;;
6259;SDS011;3163;51.516;4.000;2023-11-21T10:09:16;0.30;;;0.20;;
6259;SDS011;3163;51.516;4.000;2023-11-21T10:11:42;0.10;;;0.10;;
6259;SDS011;3163;51.516;4.000;2023-11-21T10:14:11;0.90;;;0.30;;
6259;SDS011;3163;51.516;4.000;2023-11-21T10:16:38;1.80;;;0.30;;
6259;SDS011;3163;51.516;4.000;2023-11-21T10:19:05;1.23;;;0.40;;
6259;SDS011;3163;51.516;4.000;2023-11-21T10:21:32;0.37;;;0.37;;
6259;SDS011;3163;51.516;4.000;2023-11-21T10:23:58;0.20;;;0.20;;
6259;SDS011;3163;51.516;4.000;2023-11-21T10:26:25;0.27;;;0.27;;
6259;SDS011;3163;51.516;4.000;2023-11-21T10:28:59;0.20;;;0.13;;
6259;SDS011;3163;51.516;4.000;2023-11-21T10:31:31;0.33;;;0.27;;
6259;SDS011;3163;51.516;4.000;2023-11-21T10:36:39;2.13;;;0.30;;
6259;SDS011;3163;51.516;4.000;2023-11-21T10:39:05;3.00;;;0.60;;
6259;SDS011;3163;51.516;4.000;2023-11-21T10:41:30;0.37;;;0.37;;
6259;SDS011;3163;51.516;4.000;2023-11-21T10:43:57;1.07;;;0.30;;
6259;SDS011;3163;51.516;4.000;2023-11-21T10:46:23;1.20;;;0.60;;
6259;SDS011;3163;51.516;4.000;2023-11-21T10:48:53;0.00;;;0.00;;
6259;SDS011;3163;51.516;4.000;2023-11-21T10:51:21;0.20;;;0.20;;
6259;SDS011;3163;51.516;4.000;2023-11-21T10:53:49;0.40;;;0.33;;
6259;SDS011;3163;51.516;4.000;2023-11-21T10:56:16;0.20;;;0.20;;
6259;SDS011;3163;51.516;4.000;2023-11-21T10:58:45;0.10;;;0.10;;
6259;SDS011;3163;51.516;4.000;2023-11-21T11:01:11;0.10;;;0.10;;
6259;SDS011;3163;51.516;4.000;2023-11-21T11:03:39;0.40;;;0.30;;
6259;SDS011;3163;51.516;4.000;2023-11-21T11:06:05;0.23;;;0.23;;
6259;SDS011;3163;51.516;4.000;2023-11-21T11:08:36;0.50;;;0.40;;
6259;SDS011;3163;51.516;4.000;2023-11-21T11:11:03;0.33;;;0.33;;
6259;SDS011;3163;51.516;4.000;2023-11-21T11:13:30;0.13;;;0.13;;
6259;SDS011;3163;51.516;4.000;2023-11-21T11:15:59;0.10;;;0.10;;
6259;SDS011;3163;51.516;4.000;2023-11-21T11:18:27;0.27;;;0.27;;
6259;SDS011;3163;51.516;4.000;2023-11-21T11:20:54;0.10;;;0.10;;
6259;SDS011;3163;51.516;4.000;2023-11-21T11:25:59;2.10;;;0.53;;
6259;SDS011;3163;51.516;4.000;2023-11-21T11:29:13;0.33;;;0.27;;
6259;SDS011;3163;51.516;4.000;2023-11-21T11:34:32;1.40;;;0.33;;
6259;SDS011;3163;51.516;4.000;2023-11-21T11:39:42;0.20;;;0.20;;
6259;SDS011;3163;51.516;4.000;2023-11-21T11:42:14;0.20;;;0.20;;
6259;SDS011;3163;51.516;4.000;2023-11-21T11:47:25;1.87;;;0.57;;
6259;SDS011;3163;51.516;4.000;2023-11-21T11:52:31;2.00;;;0.50;;
6259;SDS011;3163;51.516;4.000;2023-11-21T11:54:58;1.90;;;0.60;;
6259;SDS011;3163;51.516;4.000;2023-11-21T11:57:25;1.70;;;0.50;;
6259;SDS011;3163;51.516;4.000;2023-11-21T12:00:06;0.30;;;0.30;;
6259;SDS011;3163;51.516;4.000;2023-11-21T12:02:52;0.93;;;0.40;;
6259;SDS011;3163;51.516;4.000;2023-11-21T12:05:18;0.30;;;0.30;;
6259;SDS011;3163;51.516;4.000;2023-11-21T12:07:51;0.32;;;0.32;;
6259;SDS011;3163;51.516;4.000;2023-11-21T12:10:19;1.30;;;0.57;;
6259;SDS011;3163;51.516;4.000;2023-11-21T12:12:46;0.20;;;0.20;;
6259;SDS011;3163;51.516;4.000;2023-11-21T12:15:12;0.43;;;0.20;;
6259;SDS011;3163;51.516;4.000;2023-11-21T12:17:42;1.33;;;0.70;;
6259;SDS011;3163;51.516;4.000;2023-11-21T12:20:08;0.77;;;0.77;;
6259;SDS011;3163;51.516;4.000;2023-11-21T12:22:48;0.43;;;0.43;;
6259;SDS011;3163;51.516;4.000;2023-11-21T12:25:14;0.30;;;0.20;;
6259;SDS011;3163;51.516;4.000;2023-11-21T12:27:44;0.83;;;0.63;;
6259;SDS011;3163;51.516;4.000;2023-11-21T12:30:11;0.27;;;0.27;;
6259;SDS011;3163;51.516;4.000;2023-11-21T12:32:41;0.37;;;0.37;;
6259;SDS011;3163;51.516;4.000;2023-11-21T12:35:10;0.03;;;0.03;;
6259;SDS011;3163;51.516;4.000;2023-11-21T12:37:37;0.30;;;0.30;;
6259;SDS011;3163;51.516;4.000;2023-11-21T12:40:05;0.43;;;0.43;;
6259;SDS011;3163;51.516;4.000;2023-11-21T12:42:31;0.60;;;0.40;;
6259;SDS011;3163;51.516;4.000;2023-11-21T12:48:00;0.53;;;0.30;;
6259;SDS011;3163;51.516;4.000;2023-11-21T12:50:32;0.53;;;0.37;;
6259;SDS011;3163;51.516;4.000;2023-11-21T12:55:25;0.20;;;0.20;;
6259;SDS011;3163;51.516;4.000;2023-11-21T12:57:52;0.30;;;0.30;;
6259;SDS011;3163;51.516;4.000;2023-11-21T13:00:29;0.40;;;0.40;;
6259;SDS011;3163;51.516;4.000;2023-11-21T13:02:57;0.20;;;0.20;;
6259;SDS011;3163;51.516;4.000;2023-11-21T13:05:27;0.50;;;0.47;;
6259;SDS011;3163;51.516;4.000;2023-11-21T13:07:57;0.20;;;0.20;;
6259;SDS011;3163;51.516;4.000;2023-11-21T13:10:24;0.20;;;0.20;;
6259;SDS011;3163;51.516;4.000;2023-11-21T13:12:54;0.20;;;0.20;;
6259;SDS011;3163;51.516;4.000;2023-11-21T13:15:23;0.40;;;0.40;;
6259;SDS011;3163;51.516;4.000;2023-11-21T13:17:49;1.37;;;0.37;;
6259;SDS011;3163;51.516;4.000;2023-11-21T13:20:16;0.43;;;0.27;;
6259;SDS011;3163;51.516;4.000;2023-11-21T13:22:52;0.50;;;0.50;;
6259;SDS011;3163;51.516;4.000;2023-11-21T13:25:20;0.23;;;0.23;;
6259;SDS011;3163;51.516;4.000;2023-11-21T13:27:46;1.07;;;0.67;;
6259;SDS011;3163;51.516;4.000;2023-11-21T13:30:15;0.80;;;0.80;;
6259;SDS011;3163;51.516;4.000;2023-11-21T13:32:44;3.37;;;1.27;;
6259;SDS011;3163;51.516;4.000;2023-11-21T13:35:16;0.93;;;0.93;;
6259;SDS011;3163;51.516;4.000;2023-11-21T13:38:06;1.73;;;1.40;;
6259;SDS011;3163;51.516;4.000;2023-11-21T13:40:34;2.17;;;1.23;;
6259;SDS011;3163;51.516;4.000;2023-11-21T13:43:07;0.80;;;0.67;;
6259;SDS011;3163;51.516;4.000;2023-11-21T13:45:37;1.20;;;1.10;;
6259;SDS011;3163;51.516;4.000;2023-11-21T13:48:04;1.90;;;1.37;;
6259;SDS011;3163;51.516;4.000;2023-11-21T13:50:35;1.47;;;1.37;;
6259;SDS011;3163;51.516;4.000;2023-11-21T13:53:01;0.83;;;0.83;;
6259;SDS011;3163;51.516;4.000;2023-11-21T13:55:46;1.57;;;1.23;;
6259;SDS011;3163;51.516;4.000;2023-11-21T13:58:14;0.93;;;0.63;;
6259;SDS011;3163;51.516;4.000;2023-11-21T14:00:45;1.50;;;1.40;;
6259;SDS011;3163;51.516;4.000;2023-11-21T14:03:12;0.87;;;0.80;;
6259;SDS011;3163;51.516;4.000;2023-11-21T14:05:45;0.80;;;0.77;;
6259;SDS011;3163;51.516;4.000;2023-11-21T14:08:13;0.70;;;0.70;;
6259;SDS011;3163;51.516;4.000;2023-11-21T14:10:42;0.67;;;0.50;;
6259;SDS011;3163;51.516;4.000;2023-11-21T14:13:09;0.83;;;0.83;;
6259;SDS011;3163;51.516;4.000;2023-11-21T14:15:45;1.10;;;0.97;;
6259;SDS011;3163;51.516;4.000;2023-11-21T14:18:12;1.00;;;0.90;;
6259;SDS011;3163;51.516;4.000;2023-11-21T14:20:42;0.60;;;0.60;;
6259;SDS011;3163;51.516;4.000;2023-11-21T14:23:09;0.73;;;0.73;;
6259;SDS011;3163;51.516;4.000;2023-11-21T14:25:35;0.60;;;0.60;;
6259;SDS011;3163;51.516;4.000;2023-11-21T14:28:02;0.50;;;0.50;;
6259;SDS011;3163;51.516;4.000;2023-11-21T14:30:28;0.83;;;0.40;;
6259;SDS011;3163;51.516;4.000;2023-11-21T14:32:57;0.30;;;0.30;;
6259;SDS011;3163;51.516;4.000;2023-11-21T14:35:23;0.97;;;0.97;;
6259;SDS011;3163;51.516;4.000;2023-11-21T14:37:51;0.73;;;0.67;;
6259;SDS011;3163;51.516;4.000;2023-11-21T14:40:17;2.97;;;1.10;;
6259;SDS011;3163;51.516;4.000;2023-11-21T14:42:47;0.40;;;0.40;;
6259;SDS011;3163;51.516;4.000;2023-11-21T14:45:17;0.80;;;0.80;;
6259;SDS011;3163;51.516;4.000;2023-11-21T14:47:45;0.87;;;0.87;;
6259;SDS011;3163;51.516;4.000;2023-11-21T14:50:20;1.13;;;1.13;;
6259;SDS011;3163;51.516;4.000;2023-11-21T14:53:05;2.30;;;1.50;;
6259;SDS011;3163;51.516;4.000;2023-11-21T14:55:32;1.10;;;1.10;;
6259;SDS011;3163;51.516;4.000;2023-11-21T14:58:08;0.70;;;0.70;;
6259;SDS011;3163;51.516;4.000;2023-11-21T15:00:38;0.95;;;0.65;;
6259;SDS011;3163;51.516;4.000;2023-11-21T15:03:09;0.23;;;0.23;;
6259;SDS011;3163;51.516;4.000;2023-11-21T15:05:40;0.40;;;0.40;;
6259;SDS011;3163;51.516;4.000;2023-11-21T15:08:06;2.80;;;0.90;;
6259;SDS011;3163;51.516;4.000;2023-11-21T15:10:52;1.40;;;0.60;;
6259;SDS011;3163;51.516;4.000;2023-11-21T15:13:19;2.10;;;0.77;;
6259;SDS011;3163;51.516;4.000;2023-11-21T15:15:48;0.80;;;0.80;;
6259;SDS011;3163;51.516;4.000;2023-11-21T15:18:14;1.10;;;1.10;;
6259;SDS011;3163;51.516;4.000;2023-11-21T15:20:40;1.07;;;1.00;;
6259;SDS011;3163;51.516;4.000;2023-11-21T15:23:07;0.80;;;0.80;;
6259;SDS011;3163;51.516;4.000;2023-11-21T15:25:33;0.87;;;0.87;;
6259;SDS011;3163;51.516;4.000;2023-11-21T15:28:00;1.53;;;0.90;;
6259;SDS011;3163;51.516;4.000;2023-11-21T15:30:26;0.70;;;0.70;;
6259;SDS011;3163;51.516;4.000;2023-11-21T15:32:52;1.10;;;1.00;;
6259;SDS011;3163;51.516;4.000;2023-11-21T15:35:19;1.13;;;0.87;;
6259;SDS011;3163;51.516;4.000;2023-11-21T15:37:45;1.07;;;1.00;;
6259;SDS011;3163;51.516;4.000;2023-11-21T15:40:12;2.67;;;0.87;;